Time;durP1;ratioP1;P1;durP2;ratioP2;P2;SDS_P1;SDS_P2;PMS_P1;PMS_P2;Temp;Humidity;BMP_temperature;BMP_pressure;BME280_temperature;BME280_humidity;BME280_pressure;Samples;Min_cycle;Max_cycle;Signal;HPM_P1;HPM_P2
2024/04/07 00:01:50;;;;;;;2.78;0.98;;;;;;;;;;5053767;28;20389;-64
2024/04/07 00:04:16;;;;;;;1.42;0.88;;;;;;;;;;5052582;28;20112;-64
2024/04/07 00:06:42;;;;;;;2.10;1.00;;;;;;;;;;5053853;28;20382;-64
2024/04/07 00:09:08;;;;;;;2.47;1.17;;;;;;;;;;5054232;28;20399;-64
2024/04/07 00:11:34;;;;;;;3.45;1.77;;;;;;;;;;5063185;28;20461;-64
2024/04/07 00:14:00;;;;;;;4.03;1.50;;;;;;;;;;5054043;28;20029;-64
2024/04/07 00:16:26;;;;;;;3.00;1.00;;;;;;;;;;5053753;28;20032;-64
2024/04/07 00:18:52;;;;;;;3.75;1.40;;;;;;;;;;5054015;28;20032;-64
2024/04/07 00:21:18;;;;;;;2.17;1.13;;;;;;;;;;5053534;28;20037;-64
2024/04/07 00:23:44;;;;;;;2.97;1.40;;;;;;;;;;5052263;28;20021;-64
2024/04/07 00:26:10;;;;;;;1.92;1.13;;;;;;;;;;5053668;28;20467;-64
2024/04/07 00:28:36;;;;;;;2.20;1.05;;;;;;;;;;5053693;28;20390;-64
2024/04/07 00:31:02;;;;;;;2.03;1.38;;;;;;;;;;5053470;28;20047;-64
2024/04/07 00:33:29;;;;;;;1.63;0.90;;;;;;;;;;5053556;28;20096;-64
2024/04/07 00:35:55;;;;;;;3.95;1.60;;;;;;;;;;5053151;28;20036;-64
2024/04/07 00:38:21;;;;;;;3.63;1.45;;;;;;;;;;5052661;28;20463;-64
2024/04/07 00:40:48;;;;;;;3.22;1.17;;;;;;;;;;5052309;28;20041;-64
2024/04/07 00:43:14;;;;;;;3.05;1.30;;;;;;;;;;5052746;28;20123;-64
2024/04/07 00:45:40;;;;;;;3.05;1.35;;;;;;;;;;5051723;28;20420;-64
2024/04/07 00:48:07;;;;;;;2.33;1.20;;;;;;;;;;5052966;28;20029;-64
2024/04/07 00:50:34;;;;;;;2.03;1.42;;;;;;;;;;5052403;28;20512;-64
2024/04/07 00:53:01;;;;;;;3.67;1.42;;;;;;;;;;5052543;28;20429;-64
2024/04/07 00:55:28;;;;;;;4.90;1.48;;;;;;;;;;5052881;28;20399;-64
2024/04/07 00:57:54;;;;;;;4.05;1.65;;;;;;;;;;5052946;28;20025;-64
2024/04/07 01:00:20;;;;;;;2.20;1.50;;;;;;;;;;5053059;28;20050;-64
2024/04/07 01:02:46;;;;;;;2.38;1.50;;;;;;;;;;5052607;28;20021;-64
2024/04/07 01:05:12;;;;;;;3.33;1.55;;;;;;;;;;5052972;28;20032;-64
2024/04/07 01:07:38;;;;;;;3.42;1.60;;;;;;;;;;5052869;28;20498;-64
2024/04/07 01:10:07;;;;;;;4.75;1.83;;;;;;;;;;5052803;28;20553;-64
2024/04/07 01:12:33;;;;;;;2.70;1.15;;;;;;;;;;5048747;28;20021;-64
2024/04/07 01:14:59;;;;;;;5.85;1.63;;;;;;;;;;5057319;28;20031;-64
2024/04/07 01:17:26;;;;;;;3.10;1.33;;;;;;;;;;5051321;28;20096;-63
2024/04/07 01:19:52;;;;;;;1.98;1.70;;;;;;;;;;5051886;28;20443;-64
2024/04/07 01:22:18;;;;;;;3.55;1.20;;;;;;;;;;5047080;28;20415;-64
2024/04/07 01:24:44;;;;;;;3.15;1.60;;;;;;;;;;5049885;28;20031;-64
2024/04/07 01:27:10;;;;;;;7.07;1.55;;;;;;;;;;5051677;28;20025;-64
2024/04/07 01:29:36;;;;;;;2.50;1.35;;;;;;;;;;5051050;28;20033;-64
2024/04/07 01:32:04;;;;;;;3.55;1.45;;;;;;;;;;5052340;28;20124;-64
2024/04/07 01:34:30;;;;;;;4.10;1.55;;;;;;;;;;5051067;28;20036;-63
2024/04/07 01:36:56;;;;;;;2.58;1.40;;;;;;;;;;5052410;28;20382;-63
2024/04/07 01:39:22;;;;;;;3.05;1.20;;;;;;;;;;5052257;28;20573;-63
2024/04/07 01:41:48;;;;;;;2.33;1.30;;;;;;;;;;5052000;28;20013;-63
2024/04/07 01:44:14;;;;;;;6.07;1.92;;;;;;;;;;5034350;28;20036;-63
2024/04/07 01:46:40;;;;;;;1.55;1.25;;;;;;;;;;5051755;28;20479;-63
2024/04/07 01:49:06;;;;;;;2.90;1.30;;;;;;;;;;5052296;28;20116;-63
2024/04/07 01:51:32;;;;;;;4.47;1.40;;;;;;;;;;5050562;28;20028;-63
2024/04/07 01:53:58;;;;;;;4.82;1.20;;;;;;;;;;5051686;28;20025;-62
2024/04/07 01:56:24;;;;;;;1.70;1.08;;;;;;;;;;5050230;28;20071;-63
2024/04/07 01:58:50;;;;;;;3.33;1.42;;;;;;;;;;5051564;28;20052;-63
2024/04/07 02:01:16;;;;;;;4.75;1.38;;;;;;;;;;5051864;28;20029;-63
2024/04/07 02:03:42;;;;;;;1.83;1.10;;;;;;;;;;5039278;28;20388;-63
2024/04/07 02:06:08;;;;;;;3.75;1.40;;;;;;;;;;5052070;28;20102;-62
2024/04/07 02:08:34;;;;;;;5.43;1.33;;;;;;;;;;5051562;28;20106;-63
2024/04/07 02:11:00;;;;;;;1.58;1.45;;;;;;;;;;5050365;28;20378;-63
2024/04/07 02:13:26;;;;;;;3.42;1.15;;;;;;;;;;5039525;28;20087;-63
2024/04/07 02:15:54;;;;;;;2.80;1.30;;;;;;;;;;5050226;28;20082;-63
2024/04/07 02:18:20;;;;;;;2.10;1.27;;;;;;;;;;5051489;28;20386;-63
2024/04/07 02:20:53;;;;;;;1.73;0.95;;;;;;;;;;5050882;28;20029;-62
2024/04/07 02:23:19;;;;;;;2.70;1.55;;;;;;;;;;5049734;28;20040;-63
2024/04/07 02:25:47;;;;;;;2.17;1.38;;;;;;;;;;5050975;28;20029;-62
2024/04/07 02:28:13;;;;;;;3.72;1.52;;;;;;;;;;5051292;28;20052;-62
2024/04/07 02:30:40;;;;;;;2.53;1.50;;;;;;;;;;5051169;28;20052;-62
2024/04/07 02:33:08;;;;;;;2.88;1.52;;;;;;;;;;5051243;28;20096;-64
2024/04/07 02:35:34;;;;;;;2.97;1.80;;;;;;;;;;5050981;28;20075;-62
2024/04/07 02:38:00;;;;;;;3.13;1.75;;;;;;;;;;5050841;28;20029;-63
2024/04/07 02:40:26;;;;;;;3.15;1.50;;;;;;;;;;5051351;28;20032;-63
2024/04/07 02:42:52;;;;;;;3.00;1.35;;;;;;;;;;5050905;28;20059;-63
2024/04/07 02:48:04;;;;;;;3.30;1.20;;;;;;;;;;5051154;28;20047;-63
2024/04/07 02:50:42;;;;;;;1.45;1.10;;;;;;;;;;5051053;28;20048;-63
2024/04/07 02:53:08;;;;;;;2.05;1.00;;;;;;;;;;5050997;28;20083;-63
2024/04/07 02:55:34;;;;;;;2.95;0.93;;;;;;;;;;5051078;28;20137;-63
2024/04/07 02:58:00;;;;;;;2.05;0.70;;;;;;;;;;5037120;28;20048;-63
2024/04/07 03:00:26;;;;;;;3.15;1.20;;;;;;;;;;5051293;28;20025;-63
2024/04/07 03:02:52;;;;;;;2.40;1.05;;;;;;;;;;5050841;28;20013;-63
2024/04/07 03:05:18;;;;;;;3.22;1.38;;;;;;;;;;5051227;28;20025;-63
2024/04/07 03:07:46;;;;;;;1.80;1.10;;;;;;;;;;5050977;28;20070;-63
2024/04/07 03:10:12;;;;;;;2.65;0.95;;;;;;;;;;5050893;28;20037;-63
2024/04/07 03:12:38;;;;;;;2.03;1.10;;;;;;;;;;5050621;28;20035;-63
2024/04/07 03:15:04;;;;;;;2.25;1.00;;;;;;;;;;5052980;28;20025;-63
2024/04/07 03:17:30;;;;;;;4.68;1.38;;;19.70;99.90;;;;;;5054937;28;20462;-63
2024/04/07 03:19:56;;;;;;;4.82;1.38;;;17.50;99.90;;;;;;5055037;28;20029;-63
2024/04/07 03:22:22;;;;;;;1.73;1.10;;;17.30;99.90;;;;;;5054716;28;20459;-63
2024/04/07 03:24:48;;;;;;;1.80;0.98;;;17.20;99.90;;;;;;5055181;28;20029;-63
2024/04/07 03:27:14;;;;;;;2.72;1.38;;;17.20;99.90;;;;;;5054713;28;20025;-64
2024/04/07 03:29:40;;;;;;;2.60;1.10;;;17.20;99.90;;;;;;5052822;28;20074;-63
2024/04/07 03:32:06;;;;;;;3.22;0.95;;;17.30;99.90;;;;;;5052435;28;20021;-63
2024/04/07 03:34:34;;;;;;;2.75;1.00;;;17.20;99.90;;;;;;5052497;28;20104;-63
2024/04/07 03:37:00;;;;;;;1.83;1.00;;;17.20;99.90;;;;;;5053783;28;20021;-63
2024/04/07 03:39:25;;;;;;;2.67;1.10;;;17.10;99.90;;;;;;5052108;28;20035;-63
2024/04/07 03:41:51;;;;;;;2.17;1.30;;;17.10;99.90;;;;;;5044390;28;20032;-62
2024/04/07 03:44:18;;;;;;;2.25;1.10;;;17.10;99.90;;;;;;5053650;28;20032;-63
2024/04/07 03:46:46;;;;;;;1.98;0.90;;;17.10;99.90;;;;;;5052644;28;20369;-63
2024/04/07 03:49:12;;;;;;;2.03;0.80;;;17.10;99.90;;;;;;5053907;28;20025;-63
2024/04/07 03:51:38;;;;;;;1.73;0.85;;;17.10;99.90;;;;;;5054520;28;20178;-63
2024/04/07 03:54:04;;;;;;;3.67;1.17;;;;;;;;;;5053988;28;20021;-62
2024/04/07 03:56:30;;;;;;;4.00;1.10;;;;;;;;;;5054550;28;20445;-63
2024/04/07 03:58:56;;;;;;;4.35;1.40;;;;;;;;;;5054183;28;20063;-63
2024/04/07 04:01:22;;;;;;;2.95;0.90;;;;;;;;;;5036257;28;20025;-63
2024/04/07 04:03:48;;;;;;;2.60;1.10;;;;;;;;;;5054139;28;20028;-63
2024/04/07 04:06:15;;;;;;;1.77;0.85;;;;;;;;;;5054193;28;20021;-63
2024/04/07 04:08:41;;;;;;;2.75;1.23;;;;;;;;;;5053701;28;20041;-64
2024/04/07 04:11:08;;;;;;;3.45;1.17;;;;;;;;;;5049149;28;20025;-64
2024/04/07 04:13:38;;;;;;;1.58;0.93;;;;;;;;;;5032018;28;20156;-64
2024/04/07 04:16:07;;;;;;;2.85;0.90;;;;;;;;;;5048543;28;20032;-64
2024/04/07 04:18:33;;;;;;;3.55;1.02;;;;;;;;;;5053031;28;20040;-64
2024/04/07 04:20:59;;;;;;;4.97;1.35;;;;;;;;;;5053252;28;20029;-64
2024/04/07 04:23:25;;;;;;;1.35;1.10;;;;;;;;;;5053772;28;20087;-64
2024/04/07 04:25:55;;;;;;;2.47;1.05;;;;;;;;;;5052480;28;20029;-64
2024/04/07 04:28:21;;;;;;;3.65;1.23;;;;;;;;;;5052389;28;20061;-64
2024/04/07 04:30:57;;;;;;;2.97;1.00;;;;;;;;;;5053324;28;20037;-64
2024/04/07 04:33:24;;;;;;;1.17;0.98;;;;;;;;;;5053574;28;20132;-64
2024/04/07 04:35:50;;;;;;;3.25;1.50;;;;;;;;;;5053534;28;20033;-64
2024/04/07 04:38:16;;;;;;;2.33;1.20;;;;;;;;;;5053409;28;20028;-64
2024/04/07 04:40:51;;;;;;;2.22;0.98;;;;;;;;;;5053379;28;20028;-63
2024/04/07 04:43:18;;;;;;;1.85;0.90;;;;;;;;;;5052962;28;20103;-64
2024/04/07 04:46:04;;;;;;;1.55;1.05;;;;;;;;;;5046382;28;20075;-64
2024/04/07 04:48:33;;;;;;;1.33;1.20;;;;;;;;;;5047932;28;20041;-64
2024/04/07 04:50:59;;;;;;;4.78;1.35;;;;;;;;;;5051956;28;20036;-64
2024/04/07 04:53:25;;;;;;;2.20;1.42;;;;;;;;;;5052819;28;20028;-64
2024/04/07 04:55:52;;;;;;;1.30;1.10;;;;;;;;;;5052094;28;20060;-63
2024/04/07 04:58:19;;;;;;;2.00;1.23;;;;;;;;;;5046767;28;20026;-64
2024/04/07 05:00:45;;;;;;;1.92;1.35;;;;;;;;;;5051052;28;20051;-64
2024/04/07 05:03:12;;;;;;;2.58;1.27;;;;;;;;;;5053144;28;20036;-64
2024/04/07 05:05:38;;;;;;;3.83;1.23;;;;;;;;;;5052616;28;20128;-64
2024/04/07 05:08:05;;;;;;;5.38;1.40;;;;;;;;;;5052705;28;20390;-64
2024/04/07 05:10:31;;;;;;;2.72;1.13;;;;;;;;;;5051544;28;20039;-64
2024/04/07 05:12:57;;;;;;;2.70;1.23;;;;;;;;;;5052715;28;20358;-64
2024/04/07 05:15:23;;;;;;;3.38;1.40;;;;;;;;;;5052554;28;20037;-64
2024/04/07 05:17:50;;;;;;;4.47;1.40;;;;;;;;;;5048821;28;20493;-64
2024/04/07 05:20:16;;;;;;;3.38;1.25;;;;;;;;;;5052095;28;20029;-63
2024/04/07 05:22:42;;;;;;;2.42;1.52;;;;;;;;;;5052380;28;20110;-64
2024/04/07 05:25:09;;;;;;;1.60;1.33;;;;;;;;;;5051276;28;20159;-64
2024/04/07 05:27:35;;;;;;;2.33;1.35;;;;;;;;;;5051897;28;20025;-64
2024/04/07 05:30:02;;;;;;;2.85;1.60;;;;;;;;;;5051802;28;20028;-64
2024/04/07 05:32:28;;;;;;;3.55;1.67;;;;;;;;;;5050655;28;20055;-64
2024/04/07 05:34:54;;;;;;;2.72;1.50;;;;;;;;;;5051824;28;20025;-63
2024/04/07 05:37:20;;;;;;;2.22;1.77;;;;;;;;;;5051758;28;20513;-63
2024/04/07 05:39:50;;;;;;;6.13;1.70;;;;;;;;;;5059587;28;20071;-63
2024/04/07 05:42:16;;;;;;;3.95;1.65;;;;;;;;;;5051301;28;20025;-63
2024/04/07 05:44:42;;;;;;;2.60;1.50;;;;;;;;;;5047646;28;20040;-63
2024/04/07 05:47:09;;;;;;;2.25;1.63;;;;;;;;;;5050559;28;20025;-63
2024/04/07 05:49:35;;;;;;;4.50;2.00;;;;;;;;;;5050796;28;20036;-63
2024/04/07 05:52:01;;;;;;;3.50;1.80;;;;;;;;;;5051738;28;20133;-64
2024/04/07 05:54:28;;;;;;;2.80;2.08;;;;;;;;;;5051236;28;20079;-64
2024/04/07 05:56:54;;;;;;;5.15;2.03;;;;;;;;;;5051809;28;20049;-64
2024/04/07 05:59:20;;;;;;;3.60;1.65;;;;;;;;;;5057142;28;20065;-64
2024/04/07 06:01:47;;;;;;;1.73;1.52;;;;;;;;;;5051081;28;20437;-65
2024/04/07 06:04:13;;;;;;;4.28;2.03;;;;;;;;;;5051577;28;20028;-64
2024/04/07 06:06:39;;;;;;;5.03;2.58;;;;;;;;;;5051257;28;20027;-64
2024/04/07 06:09:05;;;;;;;5.03;1.90;;;;;;;;;;5051106;28;20394;-64
2024/04/07 06:11:31;;;;;;;4.78;1.90;;;;;;;;;;5051557;28;20025;-64
2024/04/07 06:13:57;;;;;;;3.92;2.10;;;;;;;;;;5051085;28;20106;-63
2024/04/07 06:16:23;;;;;;;3.97;1.98;;;;;;;;;;5051370;28;20025;-63
2024/04/07 06:18:51;;;;;;;5.57;2.88;;;;;;;;;;5051491;28;20028;-63
2024/04/07 06:21:19;;;;;;;4.93;2.00;;;;;;;;;;5050939;28;20032;-64
2024/04/07 06:23:45;;;;;;;4.05;2.58;;;;;;;;;;5033660;28;20347;-63
2024/04/07 06:26:11;;;;;;;7.18;2.42;;;;;;;;;;5051031;28;20060;-64
2024/04/07 06:28:37;;;;;;;2.55;2.22;;;;;;;;;;5051087;28;20056;-64
2024/04/07 06:31:04;;;;;;;3.35;2.20;;;;;;;;;;5050944;28;20553;-64
2024/04/07 06:33:30;;;;;;;3.35;2.30;;;;;;;;;;5050618;28;20095;-64
2024/04/07 06:35:57;;;;;;;4.00;2.40;;;;;;;;;;5050863;28;20475;-64
2024/04/07 06:38:23;;;;;;;5.80;2.78;;;;;;;;;;5051231;28;20087;-64
2024/04/07 06:40:49;;;;;;;4.03;2.50;;;;;;;;;;5050956;28;20372;-63
2024/04/07 06:43:15;;;;;;;3.67;2.60;;;;;;;;;;5050836;28;20033;-63
2024/04/07 06:45:41;;;;;;;4.88;2.53;;;;;;;;;;5044448;28;20037;-63
2024/04/07 06:48:07;;;;;;;4.63;2.90;;;;;;;;;;5043272;28;20033;-64
2024/04/07 06:50:33;;;;;;;6.80;2.88;;;;;;;;;;5053915;28;20120;-63
2024/04/07 06:52:59;;;;;;;4.45;2.78;;;;;;;;;;5055298;28;20364;-63
2024/04/07 06:55:25;;;;;;;5.30;3.22;;;;;;;;;;5054583;28;20052;-63
2024/04/07 06:57:51;;;;;;;6.85;3.00;;;;;;;;;;5055002;28;20016;-62
2024/04/07 07:00:18;;;;;;;4.78;2.97;;;;;;;;;;5054617;28;20396;-63
2024/04/07 07:02:44;;;;;;;4.53;3.35;;;;;;;;;;5053457;28;20025;-62
2024/04/07 07:05:10;;;;;;;6.70;3.38;;;;;;;;;;5054878;28;20033;-63
2024/04/07 07:07:36;;;;;;;6.82;3.20;;;;;;;;;;5054607;28;20124;-63
2024/04/07 07:10:03;;;;;;;3.67;2.80;;;;;;;;;;5054738;28;20033;-63
2024/04/07 07:12:29;;;;;;;8.48;3.83;;;;;;;;;;5054427;28;20032;-63
2024/04/07 07:14:55;;;;;;;4.30;2.90;;;;;;;;;;5054339;28;20017;-63
2024/04/07 07:17:21;;;;;;;5.43;3.45;;;;;;;;;;5054494;28;20029;-63
2024/04/07 07:19:47;;;;;;;7.70;3.80;;;;;;;;;;5054973;28;20025;-64
2024/04/07 07:22:13;;;;;;;5.03;3.65;;;;;;;;;;5054764;28;20413;-64
2024/04/07 07:24:39;;;;;;;5.55;3.33;;;;;;;;;;5054270;28;20349;-64
2024/04/07 07:27:05;;;;;;;6.35;3.67;;;;;;;;;;5053044;28;20120;-64
2024/04/07 07:29:31;;;;;;;6.00;3.83;;;;;;;;;;5052755;28;20035;-64
2024/04/07 07:31:57;;;;;;;8.20;4.07;;;;;;;;;;5054281;28;20054;-64
2024/04/07 07:34:24;;;;;;;8.00;4.18;;;;;;;;;;5054222;28;20027;-64
2024/04/07 07:36:50;;;;;;;6.43;4.13;;;;;;;;;;5054442;28;20047;-64
2024/04/07 07:39:17;;;;;;;5.05;4.50;;;;;;;;;;5051199;28;20029;-64
2024/04/07 07:41:43;;;;;;;4.70;3.47;;;;;;;;;;5053151;28;20052;-64
2024/04/07 07:44:09;;;;;;;7.63;3.63;;;;;;;;;;5053320;28;20368;-64
2024/04/07 07:46:35;;;;;;;5.65;3.92;;;;;;;;;;5053848;28;20465;-64
2024/04/07 07:49:01;;;;;;;5.93;4.03;;;;;;;;;;5053941;28;20028;-64
2024/04/07 07:51:28;;;;;;;5.18;4.40;;;;;;;;;;5054023;28;20463;-64
2024/04/07 07:53:55;;;;;;;7.00;4.97;;;;;;;;;;5053905;28;20475;-64
2024/04/07 07:56:21;;;;;;;5.60;4.13;;;;;;;;;;5054181;28;20033;-64
2024/04/07 07:58:47;;;;;;;7.50;4.13;;;;;;;;;;5053758;28;20025;-64
2024/04/07 08:01:14;;;;;;;8.23;4.80;;;;;;;;;;5052670;28;20029;-64
2024/04/07 08:03:40;;;;;;;7.65;4.20;;;;;;;;;;5053860;28;20055;-64
2024/04/07 08:06:06;;;;;;;8.88;5.07;;;;;;;;;;5053416;28;20663;-64
2024/04/07 08:08:32;;;;;;;6.53;4.00;;;;;;;;;;5054399;28;20027;-64
2024/04/07 08:10:58;;;;;;;8.82;5.13;;;;;;;;;;5053715;28;20421;-64
2024/04/07 08:13:24;;;;;;;8.00;4.53;;;;;;;;;;5053508;28;20029;-64
2024/04/07 08:15:50;;;;;;;9.18;4.78;;;;;;;;;;5051610;28;20559;-64
2024/04/07 08:18:16;;;;;;;6.85;4.53;;;;;;;;;;5054015;28;20091;-65
2024/04/07 08:21:07;;;;;;;6.88;4.07;;;;;;;;;;5053899;28;20406;-63
2024/04/07 08:23:33;;;;;;;5.80;3.72;;;;;;;;;;5053242;28;20029;-64
2024/04/07 08:25:59;;;;;;;56.90;6.68;;;;;;;;;;5053539;28;20442;-64
2024/04/07 08:28:25;;;;;;;5.32;4.00;;;;;;;;;;5053502;28;20021;-64
2024/04/07 08:30:51;;;;;;;7.75;4.20;;;;;;;;;;5053165;28;20036;-64
2024/04/07 08:33:17;;;;;;;7.50;4.65;;;;;;;;;;5052465;28;20029;-64
2024/04/07 08:35:46;;;;;;;10.18;5.40;;;;;;;;;;5050507;28;20127;-64
2024/04/07 08:38:12;;;;;;;5.38;4.20;;;;;;;;;;5050638;28;20115;-65
2024/04/07 08:40:42;;;;;;;5.88;4.75;;;;;;;;;;5053148;28;20067;-64
2024/04/07 08:43:08;;;;;;;7.47;4.68;;;;;;;;;;5052913;28;20086;-63
2024/04/07 08:45:35;;;;;;;7.28;4.60;;;;;;;;;;5053289;28;20092;-64
2024/04/07 08:48:42;;;;;;;9.25;5.57;;;;;;;;;;5053491;28;20078;-63
2024/04/07 08:51:09;;;;;;;6.65;4.90;;;;;;;;;;5047299;28;20116;-67
2024/04/07 08:53:39;;;;;;;7.95;4.18;;;;;;;;;;5052533;28;20335;-67
2024/04/07 08:56:06;;;;;;;12.32;5.65;;;;;;;;;;5052854;28;20487;-65
2024/04/07 08:58:32;;;;;;;8.30;5.75;;;;;;;;;;5052909;28;20070;-69
2024/04/07 09:01:00;;;;;;;7.90;4.35;;;;;;;;;;5052983;28;20428;-68
2024/04/07 09:03:26;;;;;;;8.32;4.60;;;;;;;;;;5052673;28;20029;-68
2024/04/07 09:05:53;;;;;;;8.68;5.15;;;;;;;;;;5052908;28;20017;-68
2024/04/07 09:08:19;;;;;;;12.27;5.28;;;;;;;;;;5053207;28;20029;-69
2024/04/07 09:10:45;;;;;;;8.25;5.13;;;;;;;;;;5051419;28;20074;-69
2024/04/07 09:13:11;;;;;;;9.05;5.07;;;;;;;;;;5052477;28;20025;-69
2024/04/07 09:15:37;;;;;;;8.45;4.95;;;;;;;;;;5040446;28;20454;-69
2024/04/07 09:18:03;;;;;;;5.63;4.88;;;;;;;;;;5052499;28;20025;-69
2024/04/07 09:20:32;;;;;;;7.05;5.05;;;;;;;;;;5052657;28;20451;-69
2024/04/07 09:22:58;;;;;;;7.78;5.75;;;;;;;;;;5051918;28;20486;-69
2024/04/07 09:25:24;;;;;;;5.57;4.90;;;;;;;;;;5052568;28;20029;-69
2024/04/07 09:27:50;;;;;;;10.00;5.10;;;;;;;;;;5052135;28;20095;-69
2024/04/07 09:30:16;;;;;;;6.40;4.53;;;;;;;;;;5034849;28;20047;-69
2024/04/07 09:32:42;;;;;;;8.73;4.80;;;;;;;;;;5052537;28;20017;-69
2024/04/07 09:35:08;;;;;;;7.25;5.05;;;;;;;;;;5052110;28;20029;-68
2024/04/07 09:37:38;;;;;;;8.10;4.75;;;;;;;;;;5052122;28;20124;-68
2024/04/07 09:40:05;;;;;;;8.38;5.55;;;;;;;;;;5052601;28;20067;-68
2024/04/07 09:42:31;;;;;;;7.85;5.68;;;;;;;;;;5051826;28;20044;-69
2024/04/07 09:45:02;;;;;;;10.40;5.85;;;;;;;;;;5036435;28;20465;-71
2024/04/07 09:47:31;;;;;;;7.82;4.78;;;;;;;;;;5047803;28;20359;-69
2024/04/07 09:50:04;;;;;;;9.00;5.80;;;;;;;;;;5050840;28;20494;-69
2024/04/07 09:52:40;;;;;;;8.13;6.05;;;;;;;;;;5051623;28;20021;-69
2024/04/07 09:55:09;;;;;;;9.15;5.20;;;;;;;;;;5051956;28;20072;-69
2024/04/07 09:57:35;;;;;;;9.57;5.70;;;;;;;;;;5051632;28;20025;-70
2024/04/07 10:00:04;;;;;;;8.35;5.95;;;;;;;;;;5051887;28;20041;-70
2024/04/07 10:02:30;;;;;;;10.00;6.53;;;;;;;;;;5052098;28;20055;-70
2024/04/07 10:04:57;;;;;;;10.45;6.10;;;;;;;;;;5051801;28;20479;-70
2024/04/07 10:07:23;;;;;;;7.95;6.00;;;;;;;;;;5051907;28;20486;-70
2024/04/07 10:09:52;;;;;;;7.95;5.50;;;;;;;;;;5051797;28;20029;-70
2024/04/07 10:12:31;;;;;;;8.63;5.57;;;;;;;;;;5052163;28;20123;-69
2024/04/07 10:14:58;;;;;;;7.32;5.03;;;;;;;;;;5046911;28;20021;-70
2024/04/07 10:17:26;;;;;;;6.30;4.50;;;;;;;;;;5052187;28;20103;-70
2024/04/07 10:19:54;;;;;;;6.22;4.15;;;;;;;;;;5051273;28;20102;-70
2024/04/07 10:22:30;;;;;;;5.57;4.40;;;;;;;;;;5045469;28;20029;-70
2024/04/07 10:24:58;;;;;;;7.60;4.53;;;;;;;;;;5046916;28;20024;-70
2024/04/07 10:27:25;;;;;;;5.38;4.70;;;;;;;;;;5051122;28;20029;-70
2024/04/07 10:29:52;;;;;;;6.38;3.60;;;;;;;;;;5046202;28;20096;-70
2024/04/07 10:32:19;;;;;;;4.78;3.67;;;;;;;;;;5043341;28;20040;-70
2024/04/07 10:35:00;;;;;;;7.05;4.90;;;;;;;;;;5051783;28;20025;-70
2024/04/07 10:37:26;;;;;;;6.15;4.95;;;;;;;;;;5051219;28;20059;-70
2024/04/07 10:39:56;;;;;;;9.85;4.30;;;;;;;;;;5051224;28;20534;-70
2024/04/07 10:42:22;;;;;;;9.23;4.38;;;;;;;;;;5051402;28;20025;-70
2024/04/07 10:44:48;;;;;;;4.57;3.70;;;;;;;;;;5051497;28;20064;-70
2024/04/07 10:47:14;;;;;;;7.60;3.70;;;;;;;;;;5051178;28;20021;-70
2024/04/07 10:49:40;;;;;;;8.15;3.70;;;;;;;;;;5049888;28;20040;-70
2024/04/07 10:52:13;;;;;;;6.63;3.60;;;;;;;;;;5051555;28;20024;-70
2024/04/07 10:54:39;;;;;;;6.45;3.45;;;;;;;;;;5051008;28;20495;-70
2024/04/07 10:57:05;;;;;;;7.13;3.60;;;;;;;;;;5051439;28;20095;-70
2024/04/07 10:59:31;;;;;;;8.25;4.40;;;;;;;;;;5051432;28;20048;-70
2024/04/07 11:01:57;;;;;;;6.35;4.28;;;;;;;;;;5051627;28;20065;-70
2024/04/07 11:04:23;;;;;;;6.38;3.72;;;;;;;;;;5051104;28;20044;-70
2024/04/07 11:06:49;;;;;;;5.38;2.90;;;;;;;;;;5051158;28;20069;-70
2024/04/07 11:09:15;;;;;;;8.13;4.78;;;;;;;;;;5051272;28;20434;-70
2024/04/07 11:11:44;;;;;;;6.95;4.88;;;;;;;;;;5051398;28;20029;-70
2024/04/07 11:14:10;;;;;;;6.35;4.50;;;;;;;;;;5051014;28;20051;-70
2024/04/07 11:16:36;;;;;;;7.50;4.13;;;;;;;;;;5051376;28;20070;-70
2024/04/07 11:19:02;;;;;;;9.18;4.55;;;;;;;;;;5051182;28;20029;-70
2024/04/07 11:21:28;;;;;;;7.88;4.57;;;;;;;;;;5051188;28;20021;-70
2024/04/07 11:23:55;;;;;;;9.38;4.80;;;;;;;;;;5050988;28;20029;-70
2024/04/07 11:26:21;;;;;;;7.78;4.10;;;;;;;;;;5050795;28;20029;-70
2024/04/07 11:28:49;;;;;;;4.18;3.75;;;;;;;;;;5051260;28;20029;-70
2024/04/07 11:31:18;;;;;;;8.98;4.40;;;;;;;;;;5049702;28;20063;-70
2024/04/07 11:33:48;;;;;;;6.10;4.10;;;;;;;;;;5051094;28;20485;-70
2024/04/07 11:36:13;;;;;;;6.32;4.70;;;17.10;99.90;;;;;;5053777;28;20060;-70
2024/04/07 11:38:39;;;;;;;7.15;4.43;;;23.10;99.90;;;;;;5054655;28;20017;-70
2024/04/07 11:41:04;;;;;;;6.03;4.32;;;22.90;99.90;;;;;;5054753;28;20024;-70
2024/04/07 11:43:30;;;;;;;6.88;4.50;;;23.10;99.90;;;;;;5054254;28;20040;-70
2024/04/07 11:45:56;;;;;;;8.00;3.80;;;23.20;99.90;;;;;;5054427;28;20433;-70
2024/04/07 11:48:21;;;;;;;7.72;4.38;;;23.30;99.90;;;;;;5032720;28;20047;-70
2024/04/07 11:50:47;;;;;;;6.93;4.05;;;23.40;99.90;;;;;;5052059;28;20032;-70
2024/04/07 11:56:18;;;;;;;6.93;4.70;;;;;;;;;;5027540;28;20136;-71
2024/04/07 11:58:44;;;;;;;5.53;4.43;;;23.50;99.90;;;;;;5045566;28;20033;-71
2024/04/07 12:01:10;;;;;;;7.53;4.00;;;23.60;99.90;;;;;;5043259;28;20045;-70
2024/04/07 12:03:37;;;;;;;5.72;3.63;;;23.80;99.90;;;;;;5053815;28;20040;-71
2024/04/07 12:06:03;;;;;;;8.38;4.43;;;24.10;99.90;;;;;;5054133;28;20021;-71
2024/04/07 12:08:29;;;;;;;6.07;4.10;;;24.10;99.90;;;;;;5054051;28;20025;-71
2024/04/07 12:10:54;;;;;;;8.15;4.15;;;24.20;99.90;;;;;;5053849;28;20368;-71
2024/04/07 12:13:20;;;;;;;6.75;3.83;;;24.30;99.90;;;;;;5054026;28;20416;-71
2024/04/07 12:15:46;;;;;;;7.15;3.97;;;24.40;99.90;;;;;;5054010;28;20027;-71
2024/04/07 12:18:12;;;;;;;6.55;3.78;;;;;;;;;;5054260;28;20064;-71
2024/04/07 12:20:38;;;;;;;7.18;4.60;;;;;;;;;;5053494;28;20100;-71
2024/04/07 12:23:04;;;;;;;7.22;4.75;;;;;;;;;;5053895;28;20440;-71
2024/04/07 12:25:30;;;;;;;7.32;4.20;;;;;;;;;;5053526;28;20163;-71
2024/04/07 12:27:56;;;;;;;7.43;4.28;;;;;;;;;;5053636;28;20061;-71
2024/04/07 12:30:22;;;;;;;7.68;4.93;;;;;;;;;;5053297;28;20118;-71
2024/04/07 12:32:47;;;;;;;8.30;4.20;;;24.60;99.90;;;;;;5037771;28;20021;-71
2024/04/07 12:35:13;;;;;;;5.47;4.30;;;;;;;;;;5053626;28;20063;-71
2024/04/07 12:37:40;;;;;;;6.07;4.55;;;;;;;;;;5053340;28;20029;-72
2024/04/07 12:40:06;;;;;;;6.07;4.90;;;;;;;;;;5053801;28;20083;-72
2024/04/07 12:42:32;;;;;;;4.53;4.10;;;;;;;;;;5053362;28;20053;-72
2024/04/07 12:44:58;;;;;;;7.95;4.88;;;;;;;;;;5053260;28;20042;-70
2024/04/07 12:47:25;;;;;;;6.88;4.50;;;;;;;;;;5052693;28;20029;-71
2024/04/07 12:49:51;;;;;;;5.45;4.60;;;;;;;;;;5053083;28;20041;-70
2024/04/07 12:52:17;;;;;;;7.57;4.75;;;;;;;;;;5053096;28;20017;-70
2024/04/07 12:54:43;;;;;;;5.82;4.47;;;;;;;;;;5053184;28;20509;-70
2024/04/07 12:57:09;;;;;;;9.88;4.68;;;;;;;;;;5052329;28;20040;-70
2024/04/07 12:59:35;;;;;;;7.28;5.28;;;;;;;;;;5053422;28;20060;-70
2024/04/07 13:02:01;;;;;;;6.10;5.28;;;30.00;99.90;;;;;;5052998;28;20479;-70
2024/04/07 13:04:27;;;;;;;9.20;5.55;;;25.80;99.90;;;;;;5053069;28;20522;-70
2024/04/07 13:06:52;;;;;;;7.47;4.57;;;25.60;99.90;;;;;;5053110;28;20021;-70
2024/04/07 13:09:18;;;;;;;5.97;4.15;;;26.10;99.90;;;;;;5052449;28;20359;-71
2024/04/07 13:11:44;;;;;;;7.47;4.80;;;26.00;99.90;;;;;;5052090;28;20471;-70
2024/04/07 13:14:10;;;;;;;6.00;4.38;;;25.70;99.90;;;;;;5052931;28;20036;-70
2024/04/07 13:16:36;;;;;;;5.57;4.97;;;25.60;99.90;;;;;;5052728;28;20029;-70
2024/04/07 13:19:01;;;;;;;5.50;4.60;;;25.40;99.90;;;;;;5053186;28;20032;-69
2024/04/07 13:21:27;;;;;;;7.70;4.25;;;25.40;99.90;;;;;;5052447;28;20017;-71
2024/04/07 13:23:53;;;;;;;5.72;4.22;;;25.20;99.90;;;;;;5052571;28;20136;-71
2024/04/07 13:26:19;;;;;;;5.30;4.32;;;25.30;99.90;;;;;;5052484;28;20029;-70
2024/04/07 13:28:44;;;;;;;6.47;4.57;;;25.10;99.90;;;;;;5050712;28;20013;-70
2024/04/07 13:31:10;;;;;;;6.70;4.32;;;25.10;99.90;;;;;;5045964;28;20032;-70
2024/04/07 13:33:36;;;;;;;7.18;4.95;;;25.20;99.90;;;;;;5052642;28;20076;-70
2024/04/07 13:36:02;;;;;;;6.75;4.55;;;25.50;99.90;;;;;;5052482;28;20449;-71
2024/04/07 13:38:28;;;;;;;6.10;4.25;;;25.50;99.90;;;;;;5052502;28;20031;-70
2024/04/07 13:40:57;;;;;;;8.13;4.38;;;25.60;99.90;;;;;;5052674;28;20092;-70
2024/04/07 13:43:23;;;;;;;6.10;4.57;;;25.50;99.90;;;;;;5052299;28;20060;-70
2024/04/07 13:45:49;;;;;;;5.60;4.20;;;25.20;99.90;;;;;;5041727;28;20026;-70
2024/04/07 13:48:15;;;;;;;7.25;4.20;;;25.00;99.90;;;;;;5052396;28;20028;-70
2024/04/07 13:50:41;;;;;;;6.30;4.30;;;24.90;99.90;;;;;;5052150;28;20041;-70
2024/04/07 13:53:08;;;;;;;9.77;4.63;;;25.00;99.90;;;;;;5052245;28;20022;-70
2024/04/07 13:55:34;;;;;;;8.30;4.63;;;24.90;99.90;;;;;;5052030;28;20021;-69
2024/04/07 13:58:00;;;;;;;6.45;4.13;;;24.80;99.90;;;;;;5051226;28;20071;-70
2024/04/07 14:00:25;;;;;;;6.35;4.55;;;24.90;99.90;;;;;;5052298;28;20116;-69
2024/04/07 14:02:51;;;;;;;8.57;4.55;;;24.80;99.90;;;;;;5052186;28;20190;-70
2024/04/07 14:05:17;;;;;;;8.43;4.25;;;24.70;99.90;;;;;;5052025;28;20029;-70
2024/04/07 14:07:43;;;;;;;5.13;4.25;;;24.60;99.90;;;;;;5051946;28;20021;-70
2024/04/07 14:10:09;;;;;;;5.15;4.38;;;24.60;99.90;;;;;;5051350;28;20040;-70
2024/04/07 14:12:35;;;;;;;9.85;4.82;;;24.70;99.90;;;;;;5051973;28;20028;-70
2024/04/07 14:15:01;;;;;;;6.07;4.25;;;24.60;99.90;;;;;;5051912;28;20036;-70
2024/04/07 14:17:26;;;;;;;7.18;4.28;;;24.60;99.90;;;;;;5051823;28;20554;-70
2024/04/07 14:19:52;;;;;;;6.72;4.05;;;24.70;99.90;;;;;;5051322;28;20032;-70
2024/04/07 14:22:18;;;;;;;6.38;4.45;;;24.80;99.90;;;;;;5051758;28;20104;-70